createdAt,value
2023-12-31T00:00:03.643Z,4147.6
2023-12-31T00:05:39.137Z,4147.8
2023-12-31T00:11:14.905Z,4147.3
2023-12-31T00:16:51.585Z,4146.6
2023-12-31T00:22:28.204Z,4147.1
2023-12-31T00:28:04.403Z,4145.1
2023-12-31T00:33:41.100Z,4147.5
2023-12-31T00:39:16.369Z,4144.6
2023-12-31T00:44:52.196Z,4143.6
2023-12-31T00:50:28.707Z,4143.8
2023-12-31T00:56:03.768Z,4144.3
2023-12-31T01:01:40.867Z,4145
2023-12-31T01:07:16.866Z,4147.3
2023-12-31T01:12:52.294Z,4142.6
2023-12-31T01:18:28.844Z,4141.8
2023-12-31T01:24:04.164Z,4142.1
2023-12-31T01:29:39.479Z,4141.3
2023-12-31T01:35:15.343Z,4142.4
2023-12-31T01:40:52.022Z,4141.4
2023-12-31T01:46:28.560Z,4141.6
2023-12-31T01:52:04.926Z,4140.8
2023-12-31T01:57:40.420Z,4139.4
2023-12-31T02:03:16.166Z,4139.1
2023-12-31T02:08:52.211Z,4140.3
2023-12-31T02:14:27.365Z,4139.3
2023-12-31T02:20:02.487Z,4140.6
2023-12-31T02:25:39.898Z,4139.3
2023-12-31T02:31:17.092Z,4137.6
2023-12-31T02:36:52.244Z,4139.3
2023-12-31T02:42:27.843Z,4136.7
2023-12-31T02:48:04.610Z,4138.9
2023-12-31T02:53:40.697Z,4136.2
2023-12-31T02:59:16.765Z,4135.7
2023-12-31T03:04:53.300Z,4136.7
2023-12-31T03:10:29.319Z,4136.4
2023-12-31T03:16:05.106Z,4138.9
2023-12-31T03:21:41.206Z,4135.9
2023-12-31T03:27:16.233Z,4137.8
2023-12-31T03:32:52.992Z,4136.7
2023-12-31T03:38:28.621Z,4133.1
2023-12-31T03:44:03.959Z,4133.6
2023-12-31T03:49:40.067Z,4132.9
2023-12-31T03:55:16.133Z,4134.4
2023-12-31T04:00:51.848Z,4134.1
2023-12-31T04:06:27.626Z,4136.7
2023-12-31T04:12:02.901Z,4134.4
2023-12-31T04:17:40.408Z,4135.9
2023-12-31T04:23:15.777Z,4132.7
2023-12-31T04:28:51.750Z,4133.7
2023-12-31T04:34:27.392Z,4135.6
2023-12-31T04:40:03.428Z,4133.9
2023-12-31T04:45:39.149Z,4135.6
2023-12-31T04:51:14.528Z,4131.7
2023-12-31T04:56:50.654Z,4131.7
2023-12-31T05:02:26.673Z,4130.5
2023-12-31T05:08:01.970Z,4132.7
2023-12-31T05:13:37.463Z,4132.7
2023-12-31T05:19:14.122Z,4132.2
2023-12-31T05:24:50.533Z,4133.7
2023-12-31T05:30:26.750Z,4130.5
2023-12-31T05:36:01.918Z,4130.9
2023-12-31T05:41:37.210Z,4131.7
2023-12-31T05:47:13.860Z,4130.7
2023-12-31T05:52:49.612Z,4130.9
2023-12-31T05:58:25.787Z,4134.2
2023-12-31T06:04:01.557Z,4131.2
2023-12-31T06:09:37.123Z,4130.2
2023-12-31T06:15:13.130Z,4129
2023-12-31T06:20:49.733Z,4128.4
2023-12-31T06:26:25.269Z,4131.2
2023-12-31T06:32:01.701Z,4130.5
2023-12-31T06:37:38.572Z,4132.4
2023-12-31T06:43:14.253Z,4129.9
2023-12-31T06:48:50.573Z,4131.1
2023-12-31T06:54:26.363Z,4127.5
2023-12-31T07:00:03.116Z,4126
2023-12-31T07:05:39.322Z,4128.4
2023-12-31T07:11:15.087Z,4128.2
2023-12-31T07:16:50.580Z,4128
2023-12-31T07:22:27.395Z,4126
2023-12-31T07:28:03.803Z,4125.9
2023-12-31T07:33:43.484Z,4128.5
2023-12-31T07:39:18.870Z,4126.5
2023-12-31T07:44:54.762Z,4126.4
2023-12-31T07:50:30.195Z,4124.9
2023-12-31T07:56:10.701Z,4126
2023-12-31T08:01:47.094Z,4125.5
2023-12-31T08:07:22.939Z,4123.5
2023-12-31T08:12:58.493Z,4124.5
2023-12-31T08:18:34.448Z,4120.8
2023-12-31T08:24:10.271Z,4122.2
2023-12-31T08:29:45.103Z,4121.3
2023-12-31T08:35:22.212Z,4122.5
2023-12-31T08:40:59.569Z,4118.3
2023-12-31T08:46:35.653Z,4119.5
2023-12-31T08:52:11.752Z,4120.5
2023-12-31T08:57:47.285Z,4120.8
2023-12-31T09:03:22.996Z,4118
2023-12-31T09:08:58.074Z,4119.2
2023-12-31T09:14:33.882Z,4116.6
2023-12-31T09:20:09.549Z,4117.3
2023-12-31T09:25:45.562Z,4119
2023-12-31T09:31:21.541Z,4117
2023-12-31T09:36:56.979Z,4115.3
2023-12-31T09:42:34.025Z,4118.2
2023-12-31T09:48:10.807Z,4113.6
2023-12-31T09:53:48.629Z,4119.7
2023-12-31T09:59:25.097Z,4114.8
2023-12-31T10:05:02.497Z,4122.3
2023-12-31T10:10:38.467Z,4125.5
2023-12-31T10:16:14.410Z,4127.2
2023-12-31T10:21:50.002Z,4126.7
2023-12-31T10:27:25.499Z,4127.4
2023-12-31T10:33:06.331Z,4134.6
2023-12-31T10:38:43.119Z,4135.7
2023-12-31T10:44:18.161Z,4138.3
2023-12-31T10:49:58.783Z,4134.6
2023-12-31T10:55:34.767Z,4131.7
2023-12-31T11:01:10.882Z,4142.1
2023-12-31T11:06:46.930Z,4134.7
2023-12-31T11:12:22.368Z,4139.1
2023-12-31T11:17:59.436Z,4152
2023-12-31T11:23:35.819Z,4158
2023-12-31T11:29:11.568Z,4144.8
2023-12-31T11:34:49.127Z,4157.9
2023-12-31T11:40:25.300Z,4152.8
2023-12-31T11:46:00.980Z,4155.5
2023-12-31T11:51:36.381Z,4164.7
2023-12-31T11:57:11.979Z,4164.1
2023-12-31T12:02:47.628Z,4161
2023-12-31T12:08:22.920Z,4164.2
2023-12-31T12:13:59.357Z,4158.5
2023-12-31T12:19:36.815Z,4164.7
2023-12-31T12:25:12.091Z,4161.4
2023-12-31T12:30:48.243Z,4159.4
2023-12-31T12:36:24.272Z,4167.1
2023-12-31T12:41:59.795Z,4153.2
2023-12-31T12:47:37.404Z,4161.2
2023-12-31T12:53:12.587Z,4167.9
2023-12-31T12:58:48.815Z,4163.2
2023-12-31T13:04:25.069Z,4155.3
2023-12-31T13:10:01.055Z,4152
2023-12-31T13:15:36.074Z,4154.2
2023-12-31T13:21:11.569Z,4163
2023-12-31T13:26:46.709Z,4161.2
2023-12-31T13:32:22.401Z,4172.3
2023-12-31T13:37:58.825Z,4159.9
2023-12-31T13:43:34.806Z,4175.3
2023-12-31T13:49:11.827Z,4175.8
2023-12-31T13:54:47.713Z,4181.3
2023-12-31T14:00:22.921Z,4172.4
2023-12-31T14:05:58.927Z,4174.6
2023-12-31T14:11:34.971Z,4181.5
2023-12-31T14:17:11.451Z,4173.1
2023-12-31T14:22:47.438Z,4155
2023-12-31T14:28:24.430Z,4153.7
2023-12-31T14:34:14.742Z,4155.2
2023-12-31T14:39:50.394Z,4173.1
2023-12-31T14:45:26.567Z,4168.6
2023-12-31T14:51:03.167Z,4180.8
2023-12-31T14:56:39.050Z,4167.9
2023-12-31T15:02:15.645Z,4175.4
2023-12-31T15:07:51.711Z,4173.1
2023-12-31T15:13:27.982Z,4160.5
2023-12-31T15:19:05.114Z,4155.2
2023-12-31T15:24:40.873Z,4157.5
2023-12-31T15:30:16.610Z,4168.2
2023-12-31T15:35:55.157Z,4165.9
2023-12-31T15:41:32.405Z,4160.4
2023-12-31T15:47:11.044Z,4152.2
2023-12-31T15:52:48.072Z,4149.8
2023-12-31T15:58:23.876Z,4153
2023-12-31T16:03:59.161Z,4150.6
2023-12-31T16:09:35.261Z,4151.8
2023-12-31T16:15:10.791Z,4150.6
2023-12-31T16:20:48.016Z,4149.5
2023-12-31T16:26:24.321Z,4147.5
2023-12-31T16:32:00.973Z,4149.6
2023-12-31T16:37:36.714Z,4148
2023-12-31T16:43:13.124Z,4146.8
2023-12-31T16:48:50.106Z,4146.5
2023-12-31T16:54:25.274Z,4148
2023-12-31T17:00:01.126Z,4144.3
2023-12-31T17:05:40.678Z,4146
2023-12-31T17:11:15.782Z,4146
2023-12-31T17:16:53.014Z,4145.1
2023-12-31T17:22:29.370Z,4145.6
2023-12-31T17:28:07.127Z,4144.6
2023-12-31T17:33:43.992Z,4145.6
2023-12-31T17:39:19.444Z,4144.5
2023-12-31T17:44:55.086Z,4145.6
2023-12-31T17:50:31.009Z,4145.5
2023-12-31T17:56:07.176Z,4144.8
2023-12-31T18:01:43.798Z,4145.5
2023-12-31T18:07:19.547Z,4145.1
2023-12-31T18:12:55.349Z,4144.8
2023-12-31T18:18:32.124Z,4141.8
2023-12-31T18:24:08.261Z,4144.6
2023-12-31T18:29:43.445Z,4145.1
2023-12-31T18:35:19.526Z,4144.1
2023-12-31T18:40:55.468Z,4143.6
2023-12-31T18:46:31.841Z,4142.6
2023-12-31T18:52:07.205Z,4141.8
2023-12-31T18:57:42.794Z,4138.6
2023-12-31T19:03:18.131Z,4140.6
2023-12-31T19:08:53.527Z,4139.6
2023-12-31T19:14:29.091Z,4142.1
2023-12-31T19:20:05.292Z,4140.1
2023-12-31T19:25:40.737Z,4141.9
2023-12-31T19:31:16.491Z,4142.8
2023-12-31T19:36:51.849Z,4140.3
2023-12-31T19:42:27.114Z,4139.1
2023-12-31T19:48:03.877Z,4139.4
2023-12-31T19:53:40.204Z,4138.9
2023-12-31T19:59:17.227Z,4138.6
2023-12-31T20:04:53.966Z,4137.1
2023-12-31T20:10:30.606Z,4136.2
2023-12-31T20:16:05.761Z,4136.7
2023-12-31T20:21:41.544Z,4136.1
2023-12-31T20:27:17.195Z,4138.4
2023-12-31T20:32:53.092Z,4134.9
2023-12-31T20:38:28.752Z,4134.6
2023-12-31T20:44:04.769Z,4136.7
2023-12-31T20:49:41.981Z,4135.7
2023-12-31T20:55:18.086Z,4134.4
2023-12-31T21:00:56.097Z,4132.1
2023-12-31T21:06:31.346Z,4130.5
2023-12-31T21:12:07.861Z,4132.1
2023-12-31T21:17:43.848Z,4131.9
2023-12-31T21:23:20.168Z,4131.1
2023-12-31T21:28:58.065Z,4132.4
2023-12-31T21:34:34.102Z,4128
2023-12-31T21:40:09.690Z,4130.2
2023-12-31T21:45:45.467Z,4131.4
2023-12-31T21:51:22.339Z,4129.7
2023-12-31T21:57:09.806Z,4130.7
2023-12-31T22:02:45.921Z,4128.5
2023-12-31T22:08:21.894Z,4132.7
2023-12-31T22:13:58.057Z,4129.7
2023-12-31T22:19:35.494Z,4127.9
2023-12-31T22:25:11.028Z,4129.4
2023-12-31T22:30:52.989Z,4127.9
2023-12-31T22:36:29.402Z,4127.4
2023-12-31T22:42:05.459Z,4130
2023-12-31T22:47:42.497Z,4128.9
2023-12-31T22:53:19.264Z,4123.9
2023-12-31T22:58:55.649Z,4129.5
2023-12-31T23:04:31.687Z,4126.4
2023-12-31T23:10:07.195Z,4124.4
2023-12-31T23:15:42.212Z,4126.9
2023-12-31T23:21:18.100Z,4124.9
2023-12-31T23:26:54.330Z,4124
2023-12-31T23:32:30.251Z,4126.2
2023-12-31T23:38:09.659Z,4124.4
2023-12-31T23:44:21.996Z,4123.2
2023-12-31T23:49:59.970Z,4126.9
2023-12-31T23:55:35.390Z,4121.3
